AirNav   Air Wisconsin Up To $57,000 Bonus
 
 1399 users online  

2TE4 Frels Airport
El Campo, Texas, USA

GOING TO EL CAMPO?


FAA INFORMATION EFFECTIVE 25 MARCH 2021

Location

FAA Identifier: 2TE4
Lat/Long: 29-10-45.0800N 096-19-21.8500W
29-10.751333N 096-19.364167W
29.1791889,-96.3227361
(estimated)
Elevation: 100 ft. / 30 m (estimated)
Variation: 05E (2000)
From city: 3 miles SW of EL CAMPO, TX
Time zone: UTC -5 (UTC -6 during Standard Time)
Zip code: 77437

Airport Operations

Airport use: Private use. Permission required prior to landing
Activation date: 04/2001
Control tower: no
ARTCC: HOUSTON CENTER
FSS: MONTGOMERY COUNTY FLIGHT SERVICE STATION
Attendance: UNATNDD
Wind indicator: yes
Segmented circle: no

Airport Communications

WX AWOS-3 at ARM (10 nm NE): 118.475 (979-532-2791)

Nearby radio navigation aids

VOR radial/distance  VOR name  Freq  Var
PSXr350/24.9PALACIOS VORTAC117.3008E
ELAr173/29.0EAGLE LAKE VOR/DME116.4008E
VCTr058/38.3VICTORIA VOR/DME109.0006E

 
NDB name  Hdg/Dist  Freq  Var  ID
WHARTON240/10.024503EARM .- .-. --

Airport Services

Runway Information

Runway 17/35

Dimensions: 1500 x 200 ft. / 457 x 61 m
Surface: turf
RUNWAY 17  RUNWAY 35
Traffic pattern: rightleft

Airport Ownership and Management from official FAA records

Ownership: Privately-owned
Owner: GLENN A. FRELS
BOX 387
EL CAMPO, TX 77437
Phone 979-541-3513
Manager: GLENN A. FRELS
BOX 387
EL CAMPO, TX 77437
Phone 979-541-3513

Airport Operational Statistics

Aircraft based on the field: 2
Single engine airplanes: 1
Ultralights: 1
    

Additional Remarks

FOR CD CTC HOUSTON ARTCC AT 281-230-5622.

Instrument Procedures

There are no published instrument procedures at 2TE4.

Some nearby airports with instrument procedures:

KARM - Wharton Regional Airport (10 nm NE)
26R - Jackson County Airport (17 nm SW)
KELA - Eagle Lake Airport (25 nm N)
KBYY - Bay City Regional Airport (27 nm SE)
KPSX - Palacios Municipal Airport (27 nm S)
 
Loc | Ops | Rwys | IFR | FBO | Links
Com | Nav | Svcs | Stats | Notes
Area around 2TE4 (Frels Airport)
 
Road maps at: MapQuest Bing Google
 
Aerial photo
No photo
 
Sectional chart

 
Airport distance calculator
Flying to Frels Airport? Find the distance to fly.

From to 2TE4

Sunrise and sunset
Times for 12-Apr-2021
 Local
(UTC-5)
 Zulu
(UTC)
Morning civil twilight06:3911:39
Sunrise07:0312:03
Sunset19:4900:49
Evening civil twilight20:1301:13

Current date and time
Zulu (UTC)  12-Apr-2021 21:25:31
Local (UTC-5)  12-Apr-2021 16:25:31
 
METAR
KARM 
10nm NE 
122055Z AUTO 13012KT 7SM OVC034 27/18 A2979 RMK AO2 T02700177
TAF
KVCT 
37nm SW 
121729Z 1218/1318 13011KT P6SM BKN035 BKN250 TEMPO 1218/1220 5SM BR BKN025 FM122000 13012G18KT P6SM SCT015 BKN045 FM130100 10010KT 4SM BR OVC009 FM131600 06008KT P6SM BKN020
KSGR 
44nm NE 
121722Z 1218/1318 17012KT P6SM BKN025 BKN250 FM122000 17011KT P6SM SCT025 FM122300 15010KT P6SM BKN025 FM130300 11009KT P6SM BKN015 FM131000 09008KT 6SM BR VCSH BKN009 OVC015 FM131700 04006KT P6SM VCSH SCT009 BKN015
KLBX 
45nm E 
122006Z 1220/1318 12011KT P6SM SCT025 BKN035 FM130000 12011KT P6SM FEW015 OVC025 FM130300 11010KT P6SM OVC015 FM130600 12006KT 5SM BR BKN008 OVC015 FM131600 12007KT P6SM BKN025 BKN040
NOTAMs
Click for the latest NOTAMs
NOTAMs are issued by the DoD/FAA and will open in a separate window not controlled by AirNav.

 

 
 

Would you like to see your business listed on this page?

 If your business provides an interesting product or service to pilots, flight crews, aircraft, or users of the Frels Airport, you should consider listing it here.  To start the listing process, click on the button below
 
Add a business
 

Other Pages about Frels Airport

Update a link
 
Copyright © AirNav, LLC. All rights reserved. Privacy Policy  Contact